createdAt,value
2022-08-17T00:01:55.332Z,83.89
2022-08-17T00:04:22.666Z,83.50
2022-08-17T00:06:50.035Z,83.62
2022-08-17T00:09:18.648Z,83.67
2022-08-17T00:12:42.082Z,83.67
2022-08-17T00:14:45.040Z,83.46
2022-08-17T00:17:11.720Z,83.50
2022-08-17T00:19:44.179Z,83.89
2022-08-17T00:22:31.502Z,83.96
2022-08-17T00:25:15.181Z,83.99
2022-08-17T00:27:42.156Z,84.26
2022-08-17T00:30:10.733Z,84.05
2022-08-17T00:33:13.569Z,84.12
2022-08-17T00:36:00.485Z,84.19
2022-08-17T00:38:41.800Z,84.40
2022-08-17T00:41:25.473Z,84.23
2022-08-17T00:44:05.090Z,84.61
2022-08-17T00:46:40.485Z,84.58
2022-08-17T00:49:20.929Z,84.59
2022-08-17T00:52:00.425Z,84.64
2022-08-17T00:54:41.859Z,84.60
2022-08-17T00:57:17.440Z,84.58
2022-08-17T01:00:02.742Z,84.74
2022-08-17T01:02:41.465Z,84.59
2022-08-17T01:05:12.928Z,84.45
2022-08-17T01:07:43.518Z,85.43
2022-08-17T01:10:58.269Z,86.09
2022-08-17T01:13:02.723Z,86.69
2022-08-17T01:15:29.957Z,86.36
2022-08-17T01:17:59.920Z,86.02
2022-08-17T01:20:42.643Z,86.21
2022-08-17T01:23:25.847Z,85.93
2022-08-17T01:26:14.920Z,85.67
2022-08-17T01:28:55.142Z,85.80
2022-08-17T01:31:32.865Z,85.73
2022-08-17T01:34:12.268Z,85.46
2022-08-17T01:36:49.425Z,85.32
2022-08-17T01:39:26.174Z,85.04
2022-08-17T01:42:10.381Z,84.78
2022-08-17T01:44:48.923Z,84.61
2022-08-17T01:47:40.594Z,84.47
2022-08-17T01:50:18.840Z,84.43
2022-08-17T01:52:58.325Z,84.29
2022-08-17T01:55:31.459Z,84.28
2022-08-17T01:58:10.560Z,84.11
2022-08-17T02:01:09.741Z,83.94
2022-08-17T02:03:39.931Z,83.71
2022-08-17T02:06:45.146Z,83.57
2022-08-17T02:09:23.277Z,83.63
2022-08-17T02:11:58.015Z,83.69
2022-08-17T02:14:35.489Z,83.50
2022-08-17T02:17:02.488Z,83.42
2022-08-17T02:19:40.239Z,83.29
2022-08-17T02:22:14.352Z,83.09
2022-08-17T02:25:06.602Z,82.98
2022-08-17T02:27:41.751Z,82.92
2022-08-17T02:30:59.330Z,82.85
2022-08-17T02:33:56.912Z,82.85
2022-08-17T02:36:40.046Z,82.90
2022-08-17T02:39:17.629Z,82.97
2022-08-17T02:41:48.349Z,82.87
2022-08-17T02:44:39.010Z,82.88
2022-08-17T02:47:14.307Z,83.00
2022-08-17T02:54:39.653Z,83.55
2022-08-17T02:57:24.069Z,83.90
2022-08-17T02:59:59.089Z,83.74
2022-08-17T03:02:28.047Z,83.61
2022-08-17T03:05:06.598Z,83.62
2022-08-17T03:07:34.887Z,83.76
2022-08-17T03:10:11.827Z,83.77
2022-08-17T03:12:46.930Z,83.53
2022-08-17T03:15:25.609Z,83.51
2022-08-17T03:17:53.965Z,83.41
2022-08-17T03:20:31.308Z,83.40
2022-08-17T03:23:24.283Z,83.42
2022-08-17T03:25:53.807Z,83.46
2022-08-17T03:28:23.756Z,83.43
2022-08-17T03:30:50.942Z,83.63
2022-08-17T03:33:18.237Z,83.91
2022-08-17T03:35:46.659Z,83.89
2022-08-17T03:38:15.167Z,83.93
2022-08-17T03:40:57.509Z,83.99
2022-08-17T03:43:31.693Z,84.29
2022-08-17T03:47:11.510Z,84.28
2022-08-17T03:49:39.103Z,84.26
2022-08-17T04:03:39.917Z,83.42
2022-08-17T04:06:09.478Z,83.15
2022-08-17T04:08:38.835Z,82.91
2022-08-17T04:11:05.519Z,82.38
2022-08-17T04:13:46.936Z,81.26
2022-08-17T04:16:49.995Z,79.47
2022-08-17T04:19:17.048Z,77.95
2022-08-17T04:22:30.353Z,76.13
2022-08-17T04:25:29.161Z,74.52
2022-08-17T04:32:10.846Z,71.43
2022-08-17T04:35:02.801Z,70.15
2022-08-17T04:37:46.001Z,68.61
2022-08-17T04:43:51.576Z,67.44
2022-08-17T04:48:38.658Z,64.09
2022-08-17T04:51:30.979Z,63.47
2022-08-17T04:54:23.858Z,62.60
2022-08-17T04:56:58.773Z,62.11
2022-08-17T04:59:49.300Z,61.83
2022-08-17T05:11:38.562Z,59.69
2022-08-17T05:13:31.179Z,58.93
2022-08-17T05:13:42.522Z,60.35
2022-08-17T05:16:13.781Z,58.42
2022-08-17T05:19:15.357Z,58.10
2022-08-17T05:25:51.790Z,57.54
2022-08-17T05:28:27.518Z,56.76
2022-08-17T05:40:58.827Z,56.10
2022-08-17T05:43:38.249Z,56.15
2022-08-17T05:46:21.161Z,55.59
2022-08-17T05:49:01.355Z,55.01
2022-08-17T05:51:55.163Z,54.72
2022-08-17T05:54:53.219Z,54.24
2022-08-17T05:57:43.346Z,53.71
2022-08-17T06:00:45.907Z,53.08
2022-08-17T06:09:37.697Z,52.94
2022-08-17T06:18:41.711Z,55.85
2022-08-17T06:21:11.182Z,55.97
2022-08-17T06:23:50.713Z,57.01
2022-08-17T06:26:37.284Z,56.73
2022-08-17T06:29:50.780Z,56.53
2022-08-17T06:33:06.572Z,56.86
2022-08-17T06:35:41.914Z,58.05
2022-08-17T06:38:37.593Z,58.76
2022-08-17T06:41:07.796Z,59.05
2022-08-17T06:43:46.224Z,58.02
2022-08-17T06:46:27.537Z,57.70
2022-08-17T06:49:07.675Z,57.73
2022-08-17T06:51:37.738Z,58.01
2022-08-17T06:54:11.973Z,57.63
2022-08-17T06:56:53.795Z,57.03
2022-08-17T06:59:25.676Z,55.79
2022-08-17T07:01:55.868Z,55.15
2022-08-17T07:04:34.112Z,54.89
2022-08-17T07:07:29.375Z,54.98
2022-08-17T07:10:02.295Z,55.09
2022-08-17T07:12:41.035Z,55.28
2022-08-17T07:15:19.816Z,55.30
2022-08-17T07:17:48.552Z,55.01
2022-08-17T07:20:20.029Z,55.19
2022-08-17T07:22:53.599Z,55.09
2022-08-17T07:25:30.075Z,54.74
2022-08-17T07:28:00.399Z,54.44
2022-08-17T07:30:47.238Z,53.55
2022-08-17T07:33:19.355Z,53.10
2022-08-17T07:35:49.582Z,52.24
2022-08-17T07:38:25.648Z,51.87
2022-08-17T07:41:03.332Z,51.29
2022-08-17T07:43:38.951Z,51.13
2022-08-17T07:46:43.829Z,52.08
2022-08-17T07:49:10.596Z,52.42
2022-08-17T07:51:37.340Z,52.40
2022-08-17T07:54:24.230Z,51.54
2022-08-17T07:57:04.204Z,50.42
2022-08-17T07:59:33.846Z,50.79
2022-08-17T08:02:04.131Z,50.97
2022-08-17T08:07:30.381Z,50.70
2022-08-17T08:16:33.160Z,51.43
2022-08-17T08:19:01.140Z,51.38
2022-08-17T08:21:50.800Z,50.90
2022-08-17T08:24:41.111Z,50.29
2022-08-17T08:27:15.384Z,50.28
2022-08-17T08:30:04.522Z,49.42
2022-08-17T08:33:13.080Z,49.03
2022-08-17T08:35:53.510Z,49.38
2022-08-17T08:38:22.138Z,49.22
2022-08-17T08:41:00.135Z,49.38
2022-08-17T08:43:35.795Z,49.35
2022-08-17T08:46:19.689Z,50.09
2022-08-17T08:48:58.050Z,50.55
2022-08-17T08:51:44.733Z,50.09
2022-08-17T08:54:35.202Z,49.81
2022-08-17T08:57:25.691Z,48.69
2022-08-17T09:00:01.545Z,48.08
2022-08-17T09:02:34.797Z,47.65
2022-08-17T09:05:27.998Z,47.84
2022-08-17T09:08:13.300Z,47.81
2022-08-17T09:10:58.981Z,47.23
2022-08-17T09:13:43.775Z,47.58
2022-08-17T09:16:16.445Z,47.11
2022-08-17T09:18:59.793Z,46.83
2022-08-17T09:21:49.124Z,46.63
2022-08-17T09:24:20.683Z,45.39
2022-08-17T09:26:54.959Z,45.55
2022-08-17T09:29:25.803Z,45.86
2022-08-17T09:31:57.190Z,46.57
2022-08-17T09:34:32.223Z,47.01
2022-08-17T09:37:10.795Z,46.49
2022-08-17T09:39:54.907Z,45.18
2022-08-17T09:42:37.313Z,45.37
2022-08-17T09:45:03.832Z,45.98
2022-08-17T09:47:34.377Z,46.01
2022-08-17T09:50:19.622Z,46.08
2022-08-17T09:53:06.738Z,45.75
2022-08-17T09:55:47.465Z,45.63
2022-08-17T09:58:16.993Z,45.85
2022-08-17T10:00:47.377Z,45.26
2022-08-17T10:03:20.035Z,44.19
2022-08-17T10:06:09.435Z,42.93
2022-08-17T10:08:39.015Z,42.62
2022-08-17T10:11:51.485Z,42.46
2022-08-17T10:14:37.502Z,42.39
2022-08-17T10:17:21.060Z,42.87
2022-08-17T10:19:47.533Z,42.54
2022-08-17T10:22:49.873Z,42.60
2022-08-17T10:25:54.001Z,42.32
2022-08-17T10:28:29.835Z,41.99
2022-08-17T10:31:23.284Z,42.15
2022-08-17T10:33:56.895Z,42.87
2022-08-17T10:36:33.928Z,42.97
2022-08-17T10:39:19.206Z,42.41
2022-08-17T10:41:49.768Z,42.23
2022-08-17T10:44:38.829Z,42.28
2022-08-17T10:47:07.084Z,41.24
2022-08-17T10:49:46.991Z,40.12
2022-08-17T10:52:19.505Z,40.38
2022-08-17T10:54:58.263Z,41.24
2022-08-17T10:57:26.176Z,41.20
2022-08-17T10:59:53.711Z,40.80
2022-08-17T11:02:21.476Z,39.72
2022-08-17T11:04:54.951Z,39.24
2022-08-17T11:07:43.244Z,39.67
2022-08-17T11:10:19.026Z,39.23
2022-08-17T11:13:02.001Z,38.77
2022-08-17T11:15:44.584Z,38.47
2022-08-17T11:18:32.622Z,38.63
2022-08-17T11:21:08.345Z,38.86
2022-08-17T11:23:53.471Z,38.61
2022-08-17T11:26:27.048Z,38.59
2022-08-17T11:28:58.269Z,38.77
2022-08-17T11:31:39.156Z,38.59
2022-08-17T11:34:17.006Z,38.34
2022-08-17T11:37:03.658Z,38.41
2022-08-17T11:39:30.089Z,38.31
2022-08-17T11:42:06.546Z,38.36
2022-08-17T11:44:42.585Z,38.25
2022-08-17T11:47:30.017Z,37.37
2022-08-17T11:50:14.780Z,37.36
2022-08-17T11:52:44.530Z,37.74
2022-08-17T11:55:39.582Z,37.62
2022-08-17T11:58:14.453Z,38.45
2022-08-17T12:00:44.019Z,38.06
2022-08-17T12:03:30.962Z,38.44
2022-08-17T12:06:20.547Z,38.17
2022-08-17T12:08:51.977Z,38.24
2022-08-17T12:11:55.507Z,37.25
2022-08-17T12:14:45.044Z,37.12
2022-08-17T12:17:13.435Z,36.81
2022-08-17T12:19:48.928Z,36.64
2022-08-17T12:22:24.735Z,37.28
2022-08-17T12:24:56.861Z,37.40
2022-08-17T12:27:43.155Z,37.34
2022-08-17T12:30:14.194Z,37.10
2022-08-17T12:32:47.584Z,35.70
2022-08-17T12:35:24.559Z,36.10
2022-08-17T12:37:57.005Z,36.20
2022-08-17T12:40:29.304Z,36.43
2022-08-17T12:42:57.489Z,36.86
2022-08-17T12:45:29.012Z,37.11
2022-08-17T12:47:59.751Z,37.02
2022-08-17T12:50:29.398Z,37.16
2022-08-17T12:53:01.675Z,36.16
2022-08-17T12:55:35.536Z,36.80
2022-08-17T12:58:08.121Z,36.42
2022-08-17T13:00:40.644Z,36.81
2022-08-17T13:03:21.471Z,36.16
2022-08-17T13:06:00.048Z,35.01
2022-08-17T13:08:26.442Z,34.43
2022-08-17T13:10:57.529Z,34.62
2022-08-17T13:13:28.546Z,34.82
2022-08-17T13:15:57.606Z,35.14
2022-08-17T13:18:33.159Z,35.11
2022-08-17T13:21:00.397Z,34.69
2022-08-17T13:23:28.607Z,34.78
2022-08-17T13:26:16.869Z,34.70
2022-08-17T13:28:48.042Z,34.33
2022-08-17T13:31:27.473Z,34.42
2022-08-17T13:34:14.598Z,33.81
2022-08-17T13:36:46.171Z,33.40
2022-08-17T13:39:28.876Z,33.20
2022-08-17T13:41:55.493Z,33.42
2022-08-17T13:44:38.682Z,33.16
2022-08-17T13:47:15.961Z,33.49
2022-08-17T13:49:49.040Z,33.40
2022-08-17T13:52:34.836Z,33.14
2022-08-17T13:55:04.580Z,32.14
2022-08-17T13:57:34.317Z,32.45
2022-08-17T14:00:15.525Z,32.77
2022-08-17T14:02:42.219Z,32.87
2022-08-17T14:05:08.780Z,32.86
2022-08-17T14:07:38.478Z,33.04
2022-08-17T14:10:13.190Z,33.11
2022-08-17T14:12:44.157Z,33.39
2022-08-17T14:15:21.846Z,33.41
2022-08-17T14:18:01.055Z,33.35
2022-08-17T14:20:27.649Z,33.47
2022-08-17T14:22:55.127Z,33.12
2022-08-17T14:25:23.876Z,33.31
2022-08-17T14:27:54.098Z,33.15
2022-08-17T14:30:26.927Z,32.69
2022-08-17T14:33:01.539Z,32.61
2022-08-17T14:35:28.989Z,32.51
2022-08-17T14:37:55.581Z,32.26
2022-08-17T14:40:27.504Z,32.32
2022-08-17T14:42:55.368Z,32.59
2022-08-17T14:45:36.313Z,31.97
2022-08-17T14:48:06.825Z,32.57
2022-08-17T14:50:35.279Z,32.89
2022-08-17T14:53:04.151Z,32.97
2022-08-17T14:55:31.932Z,33.27
2022-08-17T14:58:29.043Z,33.28
2022-08-17T15:01:00.721Z,32.94
2022-08-17T15:03:28.188Z,32.84
2022-08-17T15:05:54.834Z,32.80
2022-08-17T15:08:21.324Z,33.04
2022-08-17T15:10:54.478Z,33.28
2022-08-17T15:13:25.447Z,33.32
2022-08-17T15:15:52.523Z,33.66
2022-08-17T15:18:19.706Z,33.66
2022-08-17T15:20:49.436Z,32.83
2022-08-17T15:23:24.379Z,32.70
2022-08-17T15:25:52.102Z,32.82
2022-08-17T15:28:22.166Z,33.23
2022-08-17T15:30:49.631Z,33.61
2022-08-17T15:33:17.622Z,33.47
2022-08-17T15:35:48.926Z,32.99
2022-08-17T15:38:20.224Z,32.74
2022-08-17T15:40:49.573Z,32.77
2022-08-17T15:43:22.020Z,32.71
2022-08-17T15:46:02.585Z,32.25
2022-08-17T15:48:40.904Z,32.23
2022-08-17T15:51:11.679Z,32.53
2022-08-17T15:53:39.091Z,32.86
2022-08-17T15:56:08.759Z,32.93
2022-08-17T15:58:36.109Z,32.97
2022-08-17T16:01:16.570Z,32.77
2022-08-17T16:04:01.402Z,32.69
2022-08-17T16:06:31.710Z,32.65
2022-08-17T16:08:59.753Z,32.60
2022-08-17T16:11:26.338Z,32.81
2022-08-17T16:13:54.680Z,33.07
2022-08-17T16:16:23.046Z,33.36
2022-08-17T16:18:53.523Z,33.42
2022-08-17T16:21:26.333Z,33.17
2022-08-17T16:23:55.912Z,33.23
2022-08-17T16:26:23.077Z,33.21
2022-08-17T16:28:50.010Z,33.27
2022-08-17T16:31:16.631Z,32.99
2022-08-17T16:34:15.954Z,32.90
2022-08-17T16:36:31.231Z,32.66
2022-08-17T16:38:57.612Z,32.72
2022-08-17T16:41:39.393Z,32.81
2022-08-17T16:44:05.863Z,32.95
2022-08-17T16:46:32.913Z,33.27
2022-08-17T16:49:02.222Z,33.31
2022-08-17T16:51:28.823Z,33.40
2022-08-17T16:53:59.143Z,33.84
2022-08-17T16:56:26.155Z,34.06
2022-08-17T16:58:53.354Z,34.00
2022-08-17T17:01:20.850Z,34.15
2022-08-17T17:03:51.048Z,33.93
2022-08-17T17:06:22.476Z,34.02
2022-08-17T17:08:51.534Z,34.14
2022-08-17T17:11:22.677Z,34.28
2022-08-17T17:13:53.720Z,34.37
2022-08-17T17:16:40.646Z,34.68
2022-08-17T17:19:19.546Z,34.92
2022-08-17T17:22:02.150Z,35.26
2022-08-17T17:24:34.539Z,35.44
2022-08-17T17:27:07.113Z,35.64
2022-08-17T17:29:48.642Z,35.79
2022-08-17T17:32:20.352Z,36.18
2022-08-17T17:34:52.701Z,36.59
2022-08-17T17:37:23.981Z,36.78
2022-08-17T17:39:52.318Z,37.09
2022-08-17T17:42:21.430Z,37.53
2022-08-17T17:44:50.571Z,38.13
2022-08-17T17:47:17.995Z,38.65
2022-08-17T17:49:45.921Z,39.22
2022-08-17T17:52:31.269Z,39.76
2022-08-17T17:55:03.990Z,40.65
2022-08-17T17:57:36.453Z,41.25
2022-08-17T18:00:11.135Z,42.02
2022-08-17T18:02:46.543Z,42.53
2022-08-17T18:05:18.264Z,42.78
2022-08-17T18:08:07.351Z,43.27
2022-08-17T18:10:40.682Z,43.59
2022-08-17T18:13:10.388Z,44.45
2022-08-17T18:15:50.475Z,45.32
2022-08-17T18:18:16.946Z,45.23
2022-08-17T18:20:56.114Z,46.15
2022-08-17T18:23:27.892Z,46.61
2022-08-17T18:25:55.968Z,47.25
2022-08-17T18:28:25.238Z,47.46
2022-08-17T18:31:10.622Z,48.02
2022-08-17T18:33:38.740Z,47.81
2022-08-17T18:36:05.854Z,48.12
2022-08-17T18:38:33.375Z,48.28
2022-08-17T18:41:04.737Z,48.78
2022-08-17T18:43:44.400Z,49.48
2022-08-17T18:46:29.051Z,49.90
2022-08-17T18:48:59.548Z,50.58
2022-08-17T18:51:41.577Z,50.67
2022-08-17T18:54:22.908Z,50.94
2022-08-17T18:56:49.423Z,51.38
2022-08-17T18:59:16.295Z,51.33
2022-08-17T19:02:27.317Z,51.32
2022-08-17T19:05:02.445Z,52.22
2022-08-17T19:07:38.016Z,52.78
2022-08-17T19:10:23.324Z,53.01
2022-08-17T19:12:49.746Z,53.61
2022-08-17T19:15:18.542Z,53.64
2022-08-17T19:17:47.673Z,53.88
2022-08-17T19:20:14.471Z,54.07
2022-08-17T19:22:49.215Z,53.91
2022-08-17T19:25:22.407Z,54.63
2022-08-17T19:27:57.338Z,54.57
2022-08-17T19:30:24.591Z,54.84
2022-08-17T19:32:52.425Z,55.11
2022-08-17T19:35:19.678Z,55.70
2022-08-17T19:37:55.885Z,56.09
2022-08-17T19:40:48.975Z,56.49
2022-08-17T19:43:16.195Z,57.09
2022-08-17T19:45:48.781Z,57.66
2022-08-17T19:48:21.323Z,57.49
2022-08-17T19:51:07.385Z,57.86
2022-08-17T19:54:07.734Z,57.98
2022-08-17T19:56:57.980Z,58.60
2022-08-17T19:59:52.416Z,58.88
2022-08-17T20:02:18.889Z,59.54
2022-08-17T20:04:55.743Z,60.12
2022-08-17T20:07:30.304Z,60.27
2022-08-17T20:10:06.125Z,60.78
2022-08-17T20:12:34.820Z,61.17
2022-08-17T20:15:24.626Z,61.53
2022-08-17T20:17:51.767Z,61.46
2022-08-17T20:20:27.760Z,61.44
2022-08-17T20:23:08.917Z,61.36
2022-08-17T20:25:46.231Z,61.45
2022-08-17T20:28:15.960Z,61.26
2022-08-17T20:30:43.192Z,61.47
2022-08-17T20:33:28.339Z,61.44
2022-08-17T20:36:13.625Z,61.88
2022-08-17T20:38:43.241Z,61.73
2022-08-17T20:41:20.281Z,61.98
2022-08-17T20:43:52.978Z,61.89
2022-08-17T20:46:26.251Z,62.19
2022-08-17T20:48:55.784Z,62.35
2022-08-17T20:51:34.193Z,62.42
2022-08-17T20:54:06.238Z,62.51
2022-08-17T20:56:42.506Z,62.61
2022-08-17T20:59:30.853Z,62.40
2022-08-17T21:02:12.380Z,62.56
2022-08-17T21:04:52.716Z,62.63
2022-08-17T21:07:33.080Z,62.78
2022-08-17T21:10:10.178Z,62.78
2022-08-17T21:12:47.462Z,62.81
2022-08-17T21:15:27.924Z,62.97
2022-08-17T21:17:58.595Z,62.88
2022-08-17T21:20:34.072Z,62.81
2022-08-17T21:23:17.402Z,62.65
2022-08-17T21:25:45.792Z,62.70
2022-08-17T21:28:36.409Z,62.54
2022-08-17T21:31:28.629Z,62.41
2022-08-17T21:34:14.902Z,62.25
2022-08-17T21:36:45.193Z,62.32
2022-08-17T21:39:16.442Z,62.46
2022-08-17T21:41:52.269Z,62.44
2022-08-17T21:44:18.750Z,62.38
2022-08-17T21:46:46.940Z,62.53
2022-08-17T21:49:16.197Z,62.58
2022-08-17T21:51:56.058Z,62.76
2022-08-17T21:54:26.983Z,62.78
2022-08-17T21:56:57.603Z,63.13
2022-08-17T21:59:26.912Z,63.54
2022-08-17T22:01:56.963Z,64.12
2022-08-17T22:04:29.774Z,64.49
2022-08-17T22:06:57.880Z,64.73
2022-08-17T22:09:35.165Z,64.97
2022-08-17T22:12:05.072Z,64.99
2022-08-17T22:14:52.247Z,65.17
2022-08-17T22:17:26.637Z,65.42
2022-08-17T22:19:53.189Z,65.46
2022-08-17T22:22:25.830Z,65.33
2022-08-17T22:24:57.595Z,65.38
2022-08-17T22:27:45.649Z,65.36
2022-08-17T22:30:24.759Z,65.59
2022-08-17T22:32:53.518Z,65.73
2022-08-17T22:35:28.787Z,66.19
2022-08-17T22:37:55.922Z,66.21
2022-08-17T22:40:30.644Z,66.24
2022-08-17T22:42:58.211Z,66.63
2022-08-17T22:45:26.348Z,66.73
2022-08-17T22:47:54.918Z,66.77
2022-08-17T22:50:23.652Z,67.18
2022-08-17T22:53:14.723Z,67.25
2022-08-17T22:56:20.075Z,67.26
2022-08-17T22:59:25.329Z,67.50
2022-08-17T23:02:11.867Z,67.69
2022-08-17T23:04:40.596Z,67.61
2022-08-17T23:07:07.080Z,67.47
2022-08-17T23:09:33.979Z,67.51
2022-08-17T23:12:00.958Z,67.50
2022-08-17T23:14:31.260Z,67.50
2022-08-17T23:17:01.335Z,67.54
2022-08-17T23:19:31.058Z,67.66
2022-08-17T23:21:58.857Z,67.93
2022-08-17T23:24:27.635Z,67.84
2022-08-17T23:26:56.612Z,67.75
2022-08-17T23:29:33.099Z,67.84
2022-08-17T23:32:00.723Z,68.00
2022-08-17T23:34:27.970Z,68.04
2022-08-17T23:36:54.939Z,68.06
2022-08-17T23:39:24.390Z,68.09
2022-08-17T23:41:53.059Z,68.09
2022-08-17T23:44:22.830Z,68.25
2022-08-17T23:46:50.762Z,68.26
2022-08-17T23:49:19.080Z,68.43
2022-08-17T23:51:47.240Z,68.53
2022-08-17T23:54:34.904Z,68.72
2022-08-17T23:57:03.468Z,68.82
2022-08-17T23:59:30.202Z,68.95
